Observation data for Anton on 08/13/2019      Previous  Date       Current Mesonet Observations  Soil Data  Daily Summary Page  Observations in Plain Language
KAOS 130500Z 36007KT 26/16 A2996 RMK A01 T02630158  RH  055%=      5-min Rain = 0
KAOS 130505Z 00008KT 26/16 A2995 RMK A01 T02620158  RH  055%=      5-min Rain = 0
KAOS 130510Z 00008KT 26/16 A2995 RMK A01 T02640158  RH  054%=      5-min Rain = 0
KAOS 130515Z 01011KT 27/16 A2996 RMK A01 T02660157  RH  054%=      5-min Rain = 0
KAOS 130520Z 01012KT 27/16 A2995 RMK A01 T02660158  RH  054%=      5-min Rain = 0
KAOS 130525Z 00013G18KT 27/16 A2996 RMK A01 T02650157  RH  054%=      5-min Rain = 0
KAOS 130530Z 01012G17KT 26/16 A2996 RMK A01 T02630158  RH  055%=      5-min Rain = 0
KAOS 130535Z 01013G19KT 26/16 A2996 RMK A01 T02630157  RH  055%=      5-min Rain = 0
KAOS 130540Z 01012G17KT 26/16 A2996 RMK A01 T02620157  RH  055%=      5-min Rain = 0
KAOS 130545Z 01013G19KT 26/16 A2996 RMK A01 T02620157  RH  055%=      5-min Rain = 0
KAOS 130550Z 01013G19KT 26/16 A2996 RMK A01 T02610158  RH  056%=      5-min Rain = 0
KAOS 130555Z 02014G19KT 26/16 A2996 RMK A01 T02590159  RH  057%=      5-min Rain = 0
KAOS 130600Z 01014G21KT 26/16 A2996 RMK A01 T02580161  RH  058%=      5-min Rain = 0
KAOS 130605Z 02016G23KT 26/16 A2996 RMK A01 T02560162  RH  059%=      5-min Rain = 0
KAOS 130610Z 02017G24KT 26/16 A2997 RMK A01 T02550163  RH  060%=      5-min Rain = 0
KAOS 130615Z 02017G23KT 25/16 A2996 RMK A01 T02540163  RH  060%=      5-min Rain = 0
KAOS 130620Z 02017G22KT 25/16 A2996 RMK A01 T02530163  RH  061%=      5-min Rain = 0
KAOS 130625Z 02016G23KT 25/16 A2997 RMK A01 T02510164  RH  061%=      5-min Rain = 0
KAOS 130630Z 03015G24KT 25/16 A2997 RMK A01 T02490164  RH  062%=      5-min Rain = 0
KAOS 130635Z 03016G23KT 25/17 A2997 RMK A01 T02480166  RH  063%=      5-min Rain = 0
KAOS 130640Z 03017G23KT 25/17 A2997 RMK A01 T02460166  RH  064%=      5-min Rain = 0
KAOS 130645Z 04017G24KT 24/17 A2997 RMK A01 T02440166  RH  065%=      5-min Rain = 0
KAOS 130650Z 03018G26KT 24/17 A2997 RMK A01 T02440166  RH  065%=      5-min Rain = 0
KAOS 130655Z 03017G24KT 24/17 A2997 RMK A01 T02430166  RH  065%=      5-min Rain = 0
KAOS 130700Z 04017G23KT 24/17 A2998 RMK A01 T02410165  RH  065%=      5-min Rain = 0
KAOS 130705Z 04016G23KT 24/17 A2998 RMK A01 T02410165  RH  066%=      5-min Rain = 0
KAOS 130710Z 04017G22KT 24/17 A2998 RMK A01 T02400165  RH  066%=      5-min Rain = 0
KAOS 130715Z 04016G22KT 24/17 A2998 RMK A01 T02380165  RH  067%=      5-min Rain = 0
KAOS 130720Z 04015G22KT 24/17 A2998 RMK A01 T02370165  RH  067%=      5-min Rain = 0
KAOS 130725Z 04015G20KT 24/17 A2998 RMK A01 T02360166  RH  068%=      5-min Rain = 0
KAOS 130730Z 05015G20KT 23/17 A2998 RMK A01 T02340166  RH  069%=      5-min Rain = 0
KAOS 130735Z 05016G22KT 23/17 A2998 RMK A01 T02330166  RH  069%=      5-min Rain = 0
KAOS 130740Z 05016G22KT 23/17 A2999 RMK A01 T02310167  RH  071%=      5-min Rain = 0
KAOS 130745Z 05014G19KT 23/17 A2998 RMK A01 T02300168  RH  071%=      5-min Rain = 0
KAOS 130750Z 05015G22KT 23/17 A2998 RMK A01 T02290168  RH  072%=      5-min Rain = 0
KAOS 130755Z 05014KT 23/17 A2998 RMK A01 T02280168  RH  073%=      5-min Rain = 0
KAOS 130800Z 06013G18KT 23/17 A2999 RMK A01 T02270168  RH  073%=      5-min Rain = 0
KAOS 130805Z 06014KT 23/17 A2998 RMK A01 T02270168  RH  073%=      5-min Rain = 0
KAOS 130810Z 06013G19KT 23/17 A2998 RMK A01 T02260168  RH  073%=      5-min Rain = 0
KAOS 130815Z 06010KT 23/17 A2999 RMK A01 T02250169  RH  074%=      5-min Rain = 0
KAOS 130820Z 05010G16KT 22/17 A2999 RMK A01 T02230169  RH  075%=      5-min Rain = 0
KAOS 130825Z 05012KT 22/17 A2998 RMK A01 T02220169  RH  076%=      5-min Rain = 0
KAOS 130830Z 06010KT 22/17 A2999 RMK A01 T02210170  RH  076%=      5-min Rain = 0
KAOS 130835Z 05009KT 22/17 A2999 RMK A01 T02200170  RH  077%=      5-min Rain = 0
KAOS 130840Z 04006G13KT 22/17 A2999 RMK A01 T02190170  RH  078%=      5-min Rain = 0
KAOS 130845Z 04009KT 22/17 A2999 RMK A01 T02180171  RH  078%=      5-min Rain = 0
KAOS 130850Z 04009G14KT 22/17 A2999 RMK A01 T02170170  RH  079%=      5-min Rain = 0
KAOS 130855Z 04009KT 22/17 A2999 RMK A01 T02160171  RH  079%=      5-min Rain = 0
KAOS 130900Z 04009KT 22/17 A2999 RMK A01 T02160171  RH  080%=      5-min Rain = 0
KAOS 130905Z 04008KT 22/17 A2999 RMK A01 T02150171  RH  080%=      5-min Rain = 0
KAOS 130910Z 04007KT 21/17 A2999 RMK A01 T02140171  RH  080%=      5-min Rain = 0
KAOS 130915Z 04007KT 21/17 A2999 RMK A01 T02130171  RH  081%=      5-min Rain = 0
KAOS 130920Z 04006KT 21/17 A30 RMK A01 T02120171  RH  081%=      5-min Rain = 0
KAOS 130925Z 05008KT 21/17 A30 RMK A01 T02110171  RH  082%=      5-min Rain = 0
KAOS 130930Z 05007G12KT 21/17 A30 RMK A01 T02110171  RH  082%=      5-min Rain = 0
KAOS 130935Z 04007KT 21/17 A30 RMK A01 T02100171  RH  082%=      5-min Rain = 0
KAOS 130940Z 04008KT 21/17 A30 RMK A01 T02100171  RH  083%=      5-min Rain = 0
KAOS 130945Z 04009KT 21/17 A30 RMK A01 T02090172  RH  083%=      5-min Rain = 0
KAOS 130950Z 04008KT 21/17 A30 RMK A01 T02090172  RH  083%=      5-min Rain = 0
KAOS 130955Z 03005KT 21/17 A30 RMK A01 T02080172  RH  084%=      5-min Rain = 0
KAOS 131000Z 05007KT 21/17 A3001 RMK A01 T02080172  RH  084%=      5-min Rain = 0
KAOS 131005Z 05008KT 21/17 A3001 RMK A01 T02080172  RH  084%=      5-min Rain = 0
KAOS 131010Z 04005KT 21/17 A3001 RMK A01 T02070172  RH  084%=      5-min Rain = 0
KAOS 131015Z 04007KT 21/17 A3001 RMK A01 T02060172  RH  085%=      5-min Rain = 0
KAOS 131020Z 05006KT 21/17 A3001 RMK A01 T02060173  RH  085%=      5-min Rain = 0
KAOS 131025Z 04006KT 21/17 A3002 RMK A01 T02050173  RH  086%=      5-min Rain = 0
KAOS 131030Z 01005KT 21/17 A3002 RMK A01 T02050173  RH  086%=      5-min Rain = 0
KAOS 131035Z 36006KT 20/17 A3003 RMK A01 T02040173  RH  087%=      5-min Rain = 0
KAOS 131040Z 01007KT 20/17 A3003 RMK A01 T02040174  RH  087%=      5-min Rain = 0
KAOS 131045Z 02008KT 21/18 A3004 RMK A01 T02050175  RH  087%=      5-min Rain = 0
KAOS 131050Z 01008KT 21/18 A3004 RMK A01 T02060175  RH  087%=      5-min Rain = 0
KAOS 131055Z 02007KT 21/18 A3004 RMK A01 T02070175  RH  086%=      5-min Rain = 0
KAOS 131100Z 03008KT 21/18 A3003 RMK A01 T02070175  RH  086%=      5-min Rain = 0
KAOS 131105Z 03008KT 21/18 A3003 RMK A01 T02070175  RH  086%=      5-min Rain = 0
KAOS 131110Z 04009KT 21/18 A3003 RMK A01 T02070176  RH  086%=      5-min Rain = 0
KAOS 131115Z 04007KT 21/18 A3003 RMK A01 T02070176  RH  087%=      5-min Rain = 0
KAOS 131120Z 04008KT 21/18 A3003 RMK A01 T02070176  RH  087%=      5-min Rain = 0
KAOS 131125Z 03007KT 21/18 A3003 RMK A01 T02070176  RH  087%=      5-min Rain = 0
KAOS 131130Z 03007KT 21/18 A3004 RMK A01 T02070176  RH  087%=      5-min Rain = 0
KAOS 131135Z 05008KT 21/18 A3004 RMK A01 T02080176  RH  086%=      5-min Rain = 0
KAOS 131140Z 05008KT 21/18 A3005 RMK A01 T02080176  RH  086%=      5-min Rain = 0
KAOS 131145Z 05007KT 21/18 A3005 RMK A01 T02090176  RH  086%=      5-min Rain = 0
KAOS 131150Z 05009KT 21/18 A3004 RMK A01 T02080176  RH  086%=      5-min Rain = 0
KAOS 131155Z 05008KT 21/18 A3005 RMK A01 T02080177  RH  086%=      5-min Rain = 0
KAOS 131200Z 04008KT 21/18 A3005 RMK A01 T02080177  RH  086%=      5-min Rain = 0
KAOS 131205Z 04008KT 21/18 A3005 RMK A01 T02080177  RH  086%=      5-min Rain = 0
KAOS 131210Z 04007KT 21/18 A3005 RMK A01 T02080177  RH  087%=      5-min Rain = 0
KAOS 131215Z 04007KT 21/18 A3005 RMK A01 T02080177  RH  087%=      5-min Rain = 0
KAOS 131220Z 04007KT 21/18 A3006 RMK A01 T02080177  RH  087%=      5-min Rain = 0
KAOS 131225Z 04007KT 21/18 A3006 RMK A01 T02080177  RH  087%=      5-min Rain = 0
KAOS 131230Z 03007KT 21/18 A3006 RMK A01 T02080177  RH  087%=      5-min Rain = 0
KAOS 131235Z 03007KT 21/18 A3006 RMK A01 T02080177  RH  087%=      5-min Rain = 0
KAOS 131240Z 03006KT 21/18 A3006 RMK A01 T02080177  RH  087%=      5-min Rain = 0
KAOS 131245Z 02007KT 21/18 A3006 RMK A01 T02080177  RH  087%=      5-min Rain = 0
KAOS 131250Z 04006KT 21/18 A3006 RMK A01 T02080177  RH  087%=      5-min Rain = 0
KAOS 131255Z 03006KT 21/18 A3006 RMK A01 T02090177  RH  086%=      5-min Rain = 0
KAOS 131300Z 01006KT 21/18 A3006 RMK A01 T02110178  RH  086%=      5-min Rain = 0
KAOS 131305Z 01008KT 21/18 A3006 RMK A01 T02100177  RH  086%=      5-min Rain = 0
KAOS 131310Z 01006KT 21/18 A3006 RMK A01 T02110177  RH  085%=      5-min Rain = 0
KAOS 131315Z 36006KT 21/18 A3007 RMK A01 T02120178  RH  085%=      5-min Rain = 0
KAOS 131320Z 36007KT 21/18 A3007 RMK A01 T02130178  RH  085%=      5-min Rain = 0
KAOS 131325Z 00007KT 21/18 A3007 RMK A01 T02130178  RH  085%=      5-min Rain = 0
KAOS 131330Z 00006KT 22/18 A3007 RMK A01 T02150178  RH  084%=      5-min Rain = 0
KAOS 131335Z 01007KT 22/18 A3007 RMK A01 T02160178  RH  084%=      5-min Rain = 0
KAOS 131340Z 01007KT 22/18 A3008 RMK A01 T02170179  RH  083%=      5-min Rain = 0
KAOS 131345Z 02007KT 22/18 A3008 RMK A01 T02190179  RH  082%=      5-min Rain = 0
KAOS 131350Z 03007KT 22/18 A3008 RMK A01 T02210180  RH  082%=      5-min Rain = 0
KAOS 131355Z 04006KT 22/18 A3008 RMK A01 T02230180  RH  081%=      5-min Rain = 0
KAOS 131400Z 04007KT 23/18 A3008 RMK A01 T02260181  RH  080%=      5-min Rain = 0
KAOS 131405Z 04007KT 23/18 A3008 RMK A01 T02260180  RH  079%=      5-min Rain = 0
KAOS 131410Z 03008KT 23/18 A3008 RMK A01 T02260180  RH  079%=      5-min Rain = 0
KAOS 131415Z 04008KT 23/18 A3009 RMK A01 T02290181  RH  078%=      5-min Rain = 0
KAOS 131420Z 04009KT 23/18 A3009 RMK A01 T02310181  RH  077%=      5-min Rain = 0
KAOS 131425Z 04008KT 23/18 A3009 RMK A01 T02330181  RH  077%=      5-min Rain = 0
KAOS 131430Z 04009KT 24/18 A3009 RMK A01 T02360182  RH  076%=      5-min Rain = 0
KAOS 131435Z 05009KT 24/18 A3008 RMK A01 T02370181  RH  075%=      5-min Rain = 0
KAOS 131440Z 06009KT 24/18 A3008 RMK A01 T02410181  RH  073%=      5-min Rain = 0
KAOS 131445Z 06008KT 25/18 A3008 RMK A01 T02450183  RH  072%=      5-min Rain = 0
KAOS 131450Z 05011KT 25/18 A3008 RMK A01 T02450181  RH  071%=      5-min Rain = 0
KAOS 131455Z 06010KT 25/18 A3008 RMK A01 T02460181  RH  071%=      5-min Rain = 0
KAOS 131500Z 05010KT 25/18 A3008 RMK A01 T02480182  RH  070%=      5-min Rain = 0
KAOS 131505Z 05009KT 25/18 A3009 RMK A01 T02450181  RH  071%=      5-min Rain = 0
KAOS 131510Z 06009KT 25/18 A3009 RMK A01 T02490182  RH  070%=      5-min Rain = 0
KAOS 131515Z 06009KT 25/18 A3009 RMK A01 T02500182  RH  069%=      5-min Rain = 0
KAOS 131520Z 05010KT 25/18 A3009 RMK A01 T02530183  RH  069%=      5-min Rain = 0
KAOS 131525Z 06009KT 26/18 A3009 RMK A01 T02570184  RH  068%=      5-min Rain = 0
KAOS 131530Z 07008KT 26/18 A3009 RMK A01 T02580183  RH  067%=      5-min Rain = 0
KAOS 131535Z 07009KT 26/18 A3009 RMK A01 T02590182  RH  066%=      5-min Rain = 0
KAOS 131540Z 07009KT 26/18 A301 RMK A01 T02600182  RH  065%=      5-min Rain = 0
KAOS 131545Z 05009KT 26/18 A301 RMK A01 T02620182  RH  065%=      5-min Rain = 0
KAOS 131550Z 06009KT 26/18 A301 RMK A01 T02640182  RH  064%=      5-min Rain = 0
KAOS 131555Z 06008KT 26/18 A301 RMK A01 T02640182  RH  064%=      5-min Rain = 0
KAOS 131600Z 07009KT 27/18 A301 RMK A01 T02670181  RH  063%=      5-min Rain = 0
KAOS 131605Z 06009KT 27/18 A301 RMK A01 T02720181  RH  061%=      5-min Rain = 0
KAOS 131610Z 07010KT 28/18 A301 RMK A01 T02750181  RH  059%=      5-min Rain = 0
KAOS 131615Z 07008G13KT 28/18 A301 RMK A01 T02750181  RH  059%=      5-min Rain = 0
KAOS 131620Z 06008KT 28/18 A3011 RMK A01 T02760181  RH  059%=      5-min Rain = 0
KAOS 131625Z 06010KT 28/18 A3011 RMK A01 T02790183  RH  059%=      5-min Rain = 0
KAOS 131630Z 07009G14KT 28/18 A3011 RMK A01 T02840182  RH  057%=      5-min Rain = 0
KAOS 131635Z 06009KT 28/18 A3011 RMK A01 T02830180  RH  057%=      5-min Rain = 0
KAOS 131640Z 08009G14KT 28/18 A3011 RMK A01 T02810180  RH  057%=      5-min Rain = 0
KAOS 131645Z 05010KT 29/18 A3011 RMK A01 T02850179  RH  055%=      5-min Rain = 0
KAOS 131650Z 06008KT 29/18 A3011 RMK A01 T02850178  RH  055%=      5-min Rain = 0
KAOS 131655Z 07010KT 29/18 A3011 RMK A01 T02870177  RH  054%=      5-min Rain = 0
KAOS 131700Z 06008KT 29/18 A3011 RMK A01 T02880179  RH  055%=      5-min Rain = 0
KAOS 131705Z 07009G14KT 29/18 A3011 RMK A01 T02910180  RH  054%=      5-min Rain = 0
KAOS 131710Z 06009KT 29/18 A3011 RMK A01 T02940179  RH  053%=      5-min Rain = 0
KAOS 131715Z 05009G14KT 29/18 A3011 RMK A01 T02890177  RH  054%=      5-min Rain = 0
KAOS 131720Z 06012G17KT 30/18 A3011 RMK A01 T02960178  RH  052%=      5-min Rain = 0
KAOS 131725Z 05011G17KT 29/18 A3011 RMK A01 T02940177  RH  052%=      5-min Rain = 0
KAOS 131730Z 06012G19KT 30/18 A3011 RMK A01 T02950177  RH  052%=      5-min Rain = 0
KAOS 131735Z 06010G15KT 30/18 A3011 RMK A01 T02970177  RH  051%=      5-min Rain = 0
KAOS 131740Z 06012KT 30/18 A3011 RMK A01 T03010177  RH  050%=      5-min Rain = 0
KAOS 131745Z 06009G15KT 30/18 A3011 RMK A01 T03020179  RH  050%=      5-min Rain = 0
KAOS 131750Z 07010G16KT 31/18 A3011 RMK A01 T03080176  RH  048%=      5-min Rain = 0
KAOS 131755Z 06009G16KT 31/18 A3011 RMK A01 T03060176  RH  048%=      5-min Rain = 0
KAOS 131800Z 05010G17KT 31/18 A3011 RMK A01 T03050177  RH  049%=      5-min Rain = 0
KAOS 131805Z 08011G17KT 31/18 A3011 RMK A01 T03060175  RH  048%=      5-min Rain = 0
KAOS 131810Z 07011G17KT 31/18 A3011 RMK A01 T03090177  RH  048%=      5-min Rain = 0
KAOS 131815Z 07010G16KT 31/18 A3011 RMK A01 T03130177  RH  047%=      5-min Rain = 0
KAOS 131820Z 08012G17KT 31/18 A3011 RMK A01 T03120176  RH  047%=      5-min Rain = 0
KAOS 131825Z 07012G19KT 31/18 A3011 RMK A01 T03070177  RH  048%=      5-min Rain = 0
KAOS 131830Z 06011G17KT 31/18 A3011 RMK A01 T03050176  RH  048%=      5-min Rain = 0
KAOS 131835Z 05010G15KT 31/18 A3011 RMK A01 T03090179  RH  048%=      5-min Rain = 0
KAOS 131840Z 06012KT 32/18 A3011 RMK A01 T03160180  RH  047%=      5-min Rain = 0
KAOS 131845Z 07011G17KT 32/18 A3011 RMK A01 T03150179  RH  047%=      5-min Rain = 0
KAOS 131850Z 06011G18KT 31/18 A301 RMK A01 T03120178  RH  047%=      5-min Rain = 0
KAOS 131855Z 08011G16KT 32/18 A301 RMK A01 T03150180  RH  047%=      5-min Rain = 0
KAOS 131900Z 07012G18KT 32/18 A301 RMK A01 T03170180  RH  046%=      5-min Rain = 0
KAOS 131905Z 07013G19KT 32/18 A301 RMK A01 T03190178  RH  045%=      5-min Rain = 0
KAOS 131910Z 06013G20KT 32/18 A301 RMK A01 T03170179  RH  046%=      5-min Rain = 0
KAOS 131915Z 05009G17KT 31/18 A301 RMK A01 T03140179  RH  047%=      5-min Rain = 0
KAOS 131920Z 07009G15KT 32/18 A301 RMK A01 T03160178  RH  046%=      5-min Rain = 0
KAOS 131925Z 07012G19KT 32/18 A301 RMK A01 T03200179  RH  045%=      5-min Rain = 0
KAOS 131930Z 08011G18KT 32/18 A301 RMK A01 T03220179  RH  045%=      5-min Rain = 0
KAOS 131935Z 06012G17KT 32/18 A301 RMK A01 T03220178  RH  045%=      5-min Rain = 0
KAOS 131940Z 08011G19KT 32/18 A301 RMK A01 T03170178  RH  046%=      5-min Rain = 0
KAOS 131945Z 06012G21KT 32/17 A301 RMK A01 T03200174  RH  044%=      5-min Rain = 0
KAOS 131950Z 08012G19KT 32/18 A301 RMK A01 T03220175  RH  044%=      5-min Rain = 0
KAOS 131955Z 07013G19KT 33/17 A301 RMK A01 T03260173  RH  042%=      5-min Rain = 0
KAOS 132000Z 06009KT 32/18 A3009 RMK A01 T03220175  RH  044%=      5-min Rain = 0
KAOS 132005Z 07013G18KT 33/17 A3009 RMK A01 T03250173  RH  042%=      5-min Rain = 0
KAOS 132010Z 07010G16KT 33/17 A3009 RMK A01 T03290173  RH  042%=      5-min Rain = 0
KAOS 132015Z 06010G17KT 33/18 A3009 RMK A01 T03310176  RH  042%=      5-min Rain = 0
KAOS 132020Z 05013KT 33/17 A3009 RMK A01 T03280174  RH  042%=      5-min Rain = 0
KAOS 132025Z 09010G16KT 32/17 A3009 RMK A01 T03240173  RH  043%=      5-min Rain = 0
KAOS 132030Z 07010KT 33/17 A3009 RMK A01 T03280174  RH  042%=      5-min Rain = 0
KAOS 132035Z 06009G17KT 32/17 A3009 RMK A01 T03240170  RH  042%=      5-min Rain = 0
KAOS 132040Z 06011G22KT 33/17 A3008 RMK A01 T03270172  RH  042%=      5-min Rain = 0
KAOS 132045Z 07013G20KT 33/17 A3008 RMK A01 T03270171  RH  041%=      5-min Rain = 0
KAOS 132050Z 08012KT 33/17 A3008 RMK A01 T03270169  RH  041%=      5-min Rain = 0
KAOS 132055Z 06010KT 33/17 A3008 RMK A01 T03290172  RH  041%=      5-min Rain = 0
KAOS 132100Z 08011KT 33/17 A3008 RMK A01 T03310171  RH  040%=      5-min Rain = 0
KAOS 132105Z 09012KT 33/17 A3008 RMK A01 T03310168  RH  040%=      5-min Rain = 0
KAOS 132110Z 07010G17KT 33/17 A3007 RMK A01 T03330168  RH  039%=      5-min Rain = 0
KAOS 132115Z 09011KT 33/17 A3007 RMK A01 T03340165  RH  038%=      5-min Rain = 0
KAOS 132120Z 09013KT 33/17 A3007 RMK A01 T03340169  RH  039%=      5-min Rain = 0
KAOS 132125Z 09014G19KT 33/17 A3007 RMK A01 T03330166  RH  039%=      5-min Rain = 0
KAOS 132130Z 09013KT 33/16 A3007 RMK A01 T03340163  RH  038%=      5-min Rain = 0
KAOS 132135Z 08010G15KT 33/17 A3007 RMK A01 T03340165  RH  038%=      5-min Rain = 0
KAOS 132140Z 05010G18KT 33/17 A3006 RMK A01 T03330169  RH  040%=      5-min Rain = 0
KAOS 132145Z 08010G16KT 34/17 A3006 RMK A01 T03350166  RH  038%=      5-min Rain = 0
KAOS 132150Z 07009G15KT 33/17 A3006 RMK A01 T03320165  RH  039%=      5-min Rain = 0
KAOS 132155Z 07011KT 33/17 A3006 RMK A01 T03320166  RH  039%=      5-min Rain = 0
KAOS 132200Z 06010G15KT 33/17 A3006 RMK A01 T03340168  RH  039%=      5-min Rain = 0
KAOS 132205Z 07012G17KT 33/17 A3006 RMK A01 T03340166  RH  038%=      5-min Rain = 0
KAOS 132210Z 10011G16KT 33/16 A3005 RMK A01 T03320163  RH  038%=      5-min Rain = 0
KAOS 132215Z 09010KT 33/17 A3005 RMK A01 T03340166  RH  039%=      5-min Rain = 0
KAOS 132220Z 08013KT 33/16 A3005 RMK A01 T03340164  RH  038%=      5-min Rain = 0
KAOS 132225Z 08011G17KT 33/16 A3005 RMK A01 T03320162  RH  038%=      5-min Rain = 0
KAOS 132230Z 08010G15KT 33/16 A3005 RMK A01 T03330162  RH  038%=      5-min Rain = 0
KAOS 132235Z 07009KT 33/17 A3005 RMK A01 T03340165  RH  038%=      5-min Rain = 0
KAOS 132240Z 06011KT 34/17 A3004 RMK A01 T03350167  RH  038%=      5-min Rain = 0
KAOS 132245Z 06011G16KT 33/17 A3004 RMK A01 T03320165  RH  039%=      5-min Rain = 0
KAOS 132250Z 06012G18KT 33/16 A3004 RMK A01 T03280162  RH  039%=      5-min Rain = 0
KAOS 132255Z 07011G16KT 32/16 A3005 RMK A01 T03230161  RH  040%=      5-min Rain = 0
KAOS 132300Z 07010G16KT 33/16 A3005 RMK A01 T03270163  RH  039%=      5-min Rain = 0
KAOS 132305Z 07010KT 33/16 A3005 RMK A01 T03280164  RH  039%=      5-min Rain = 0
KAOS 132310Z 07009KT 33/16 A3005 RMK A01 T03280163  RH  039%=      5-min Rain = 0
KAOS 132315Z 09010G15KT 33/16 A3005 RMK A01 T03300163  RH  039%=      5-min Rain = 0
KAOS 132320Z 08009KT 33/16 A3005 RMK A01 T03280161  RH  039%=      5-min Rain = 0
KAOS 132325Z 10010KT 33/16 A3005 RMK A01 T03280161  RH  039%=      5-min Rain = 0
KAOS 132330Z 08010KT 33/16 A3005 RMK A01 T03280162  RH  039%=      5-min Rain = 0
KAOS 132335Z 08010KT 33/16 A3005 RMK A01 T03290162  RH  039%=      5-min Rain = 0
KAOS 132340Z 09009G14KT 33/16 A3005 RMK A01 T03250163  RH  040%=      5-min Rain = 0
KAOS 132345Z 06009KT 33/16 A3005 RMK A01 T03270163  RH  039%=      5-min Rain = 0
KAOS 132350Z 07010G15KT 33/16 A3005 RMK A01 T03250160  RH  039%=      5-min Rain = 0
KAOS 132355Z 08008KT 33/16 A3005 RMK A01 T03250159  RH  039%=      5-min Rain = 0
KAOS 140000Z 06010KT 33/16 A3005 RMK A01 T03250161  RH  039%=      5-min Rain = 0
KAOS 140005Z 07010KT 32/16 A3005 RMK A01 T03230160  RH  039%=      5-min Rain = 0
KAOS 140010Z 08010KT 32/16 A3005 RMK A01 T03240159  RH  039%=      5-min Rain = 0
KAOS 140015Z 06010KT 32/16 A3005 RMK A01 T03220158  RH  039%=      5-min Rain = 0
KAOS 140020Z 06010KT 32/16 A3005 RMK A01 T03200162  RH  040%=      5-min Rain = 0
KAOS 140025Z 07010KT 32/16 A3005 RMK A01 T03200161  RH  040%=      5-min Rain = 0
KAOS 140030Z 07010KT 32/16 A3005 RMK A01 T03200161  RH  040%=      5-min Rain = 0
KAOS 140035Z 08009KT 32/16 A3005 RMK A01 T03200161  RH  040%=      5-min Rain = 0
KAOS 140040Z 08010KT 32/16 A3006 RMK A01 T03190159  RH  040%=      5-min Rain = 0
KAOS 140045Z 07008KT 32/16 A3006 RMK A01 T03180161  RH  041%=      5-min Rain = 0
KAOS 140050Z 07007KT 32/16 A3005 RMK A01 T03150162  RH  042%=      5-min Rain = 0
KAOS 140055Z 07008KT 31/16 A3006 RMK A01 T03140162  RH  042%=      5-min Rain = 0
KAOS 140100Z 07008KT 31/16 A3006 RMK A01 T03120162  RH  042%=      5-min Rain = 0
KAOS 140105Z 08008KT 31/16 A3007 RMK A01 T03100161  RH  043%=      5-min Rain = 0
KAOS 140110Z 07008KT 31/16 A3007 RMK A01 T03080160  RH  043%=      5-min Rain = 0
KAOS 140115Z 07007KT 31/16 A3007 RMK A01 T03060159  RH  043%=      5-min Rain = 0
KAOS 140120Z 07008KT 30/16 A3007 RMK A01 T03040159  RH  043%=      5-min Rain = 0
KAOS 140125Z 07008KT 30/16 A3007 RMK A01 T03030160  RH  044%=      5-min Rain = 0
KAOS 140130Z 07007KT 30/16 A3007 RMK A01 T03000161  RH  045%=      5-min Rain = 0
KAOS 140135Z 08007KT 30/16 A3007 RMK A01 T02970161  RH  046%=      5-min Rain = 0
KAOS 140140Z 07008KT 30/16 A3007 RMK A01 T02960161  RH  046%=      5-min Rain = 0
KAOS 140145Z 07008KT 29/16 A3007 RMK A01 T02940160  RH  046%=      5-min Rain = 0
KAOS 140150Z 07007KT 29/16 A3007 RMK A01 T02920160  RH  047%=      5-min Rain = 0
KAOS 140155Z 07006KT 29/16 A3008 RMK A01 T02890160  RH  048%=      5-min Rain = 0
KAOS 140200Z 07006KT 29/16 A3008 RMK A01 T02870160  RH  048%=      5-min Rain = 0
KAOS 140205Z 07006KT 29/16 A3008 RMK A01 T02850160  RH  049%=      5-min Rain = 0
KAOS 140210Z 07007KT 28/16 A3008 RMK A01 T02830160  RH  050%=      5-min Rain = 0
KAOS 140215Z 07007KT 28/16 A3009 RMK A01 T02820161  RH  050%=      5-min Rain = 0
KAOS 140220Z 07007KT 28/16 A3009 RMK A01 T02800161  RH  051%=      5-min Rain = 0
KAOS 140225Z 07007KT 28/16 A3009 RMK A01 T02790161  RH  051%=      5-min Rain = 0
KAOS 140230Z 07007KT 28/16 A301 RMK A01 T02790161  RH  051%=      5-min Rain = 0
KAOS 140235Z 07007KT 28/16 A301 RMK A01 T02780160  RH  051%=      5-min Rain = 0
KAOS 140240Z 07008KT 28/16 A301 RMK A01 T02770160  RH  051%=      5-min Rain = 0
KAOS 140245Z 07008KT 28/16 A3011 RMK A01 T02760159  RH  051%=      5-min Rain = 0
KAOS 140250Z 07008KT 28/16 A3011 RMK A01 T02760159  RH  051%=      5-min Rain = 0
KAOS 140255Z 07008KT 28/16 A3011 RMK A01 T02750159  RH  052%=      5-min Rain = 0
KAOS 140300Z 07008KT 28/16 A3011 RMK A01 T02750160  RH  052%=      5-min Rain = 0
KAOS 140305Z 07008KT 27/16 A3011 RMK A01 T02740160  RH  052%=      5-min Rain = 0
KAOS 140310Z 07008KT 27/16 A3012 RMK A01 T02740160  RH  052%=      5-min Rain = 0
KAOS 140315Z 07007KT 27/16 A3012 RMK A01 T02720160  RH  053%=      5-min Rain = 0
KAOS 140320Z 07008KT 27/16 A3013 RMK A01 T02720160  RH  053%=      5-min Rain = 0
KAOS 140325Z 06008KT 27/16 A3013 RMK A01 T02710160  RH  053%=      5-min Rain = 0
KAOS 140330Z 06008KT 27/16 A3013 RMK A01 T02700160  RH  054%=      5-min Rain = 0
KAOS 140335Z 06008KT 27/16 A3013 RMK A01 T02690161  RH  054%=      5-min Rain = 0
KAOS 140340Z 06009KT 27/16 A3013 RMK A01 T02690161  RH  054%=      5-min Rain = 0
KAOS 140345Z 06009KT 27/16 A3013 RMK A01 T02680162  RH  055%=      5-min Rain = 0
KAOS 140350Z 06008KT 27/16 A3013 RMK A01 T02670163  RH  055%=      5-min Rain = 0
KAOS 140355Z 07008KT 27/16 A3013 RMK A01 T02660163  RH  056%=      5-min Rain = 0
KAOS 140400Z 07009KT 27/16 A3013 RMK A01 T02660163  RH  056%=      5-min Rain = 0
KAOS 140405Z 07010KT 27/16 A3014 RMK A01 T02650164  RH  057%=      5-min Rain = 0
KAOS 140410Z 07010KT 26/17 A3014 RMK A01 T02640165  RH  057%=      5-min Rain = 0
KAOS 140415Z 07010KT 26/17 A3014 RMK A01 T02640165  RH  057%=      5-min Rain = 0
KAOS 140420Z 07008KT 26/17 A3014 RMK A01 T02620165  RH  058%=      5-min Rain = 0
KAOS 140425Z 07009KT 26/17 A3014 RMK A01 T02610166  RH  058%=      5-min Rain = 0
KAOS 140430Z 06008KT 26/17 A3014 RMK A01 T02600166  RH  059%=      5-min Rain = 0
KAOS 140435Z 07008KT 26/17 A3014 RMK A01 T02590167  RH  060%=      5-min Rain = 0
KAOS 140440Z 06008KT 26/17 A3015 RMK A01 T02580167  RH  060%=      5-min Rain = 0
KAOS 140445Z 07008KT 26/17 A3015 RMK A01 T02560167  RH  061%=      5-min Rain = 0
KAOS 140450Z 07008KT 26/17 A3015 RMK A01 T02560168  RH  061%=      5-min Rain = 0
KAOS 140455Z 07008KT 26/17 A3014 RMK A01 T02550168  RH  061%=      5-min Rain = 0

Page generated in 0.0092 seconds.